createdAt,value
2019-06-07T00:00:38.846Z,6.50
2019-06-07T00:02:56.038Z,6.10
2019-06-07T00:05:27.284Z,6.90
2019-06-07T00:08:07.503Z,7.57
2019-06-07T00:10:36.433Z,7.40
2019-06-07T00:13:05.088Z,7.37
2019-06-07T00:15:36.252Z,8.67
2019-06-07T00:18:11.208Z,7.77
2019-06-07T00:20:41.643Z,7.63
2019-06-07T00:23:18.187Z,6.37
2019-06-07T00:25:45.806Z,7.40
2019-06-07T00:28:18.466Z,7.07
2019-06-07T00:30:51.890Z,8.33
2019-06-07T00:33:25.181Z,8.40
2019-06-07T00:35:56.538Z,8.07
2019-06-07T00:38:27.810Z,8.10
2019-06-07T00:40:58.996Z,9.00
2019-06-07T00:43:30.258Z,8.40
2019-06-07T00:46:01.412Z,8.53
2019-06-07T00:48:33.255Z,8.87
2019-06-07T00:51:04.607Z,6.60
2019-06-07T00:53:36.356Z,8.73
2019-06-07T00:56:07.682Z,7.83
2019-06-07T00:58:39.057Z,6.70
2019-06-07T01:01:10.436Z,7.63
2019-06-07T01:03:41.645Z,7.70
2019-06-07T01:06:12.698Z,7.37
2019-06-07T01:08:44.041Z,7.10
2019-06-07T01:11:15.925Z,6.93
2019-06-07T01:13:47.585Z,7.73
2019-06-07T01:16:21.588Z,8.20
2019-06-07T01:18:51.621Z,7.53
2019-06-07T01:21:24.905Z,9.07
2019-06-07T01:24:10.622Z,9.17
2019-06-07T01:26:30.256Z,10.07
2019-06-07T01:29:01.450Z,8.70
2019-06-07T01:31:32.796Z,9.03
2019-06-07T01:34:03.983Z,8.20
2019-06-07T01:36:35.208Z,7.97
2019-06-07T01:39:08.082Z,8.23
2019-06-07T01:41:39.227Z,8.00
2019-06-07T01:44:10.373Z,9.67
2019-06-07T01:46:41.640Z,8.50
2019-06-07T01:49:12.839Z,9.10
2019-06-07T01:51:43.980Z,9.07
2019-06-07T01:56:47.987Z,8.27
2019-06-07T01:59:21.941Z,9.27
2019-06-07T02:01:51.865Z,9.40
2019-06-07T02:04:25.186Z,9.00
2019-06-07T02:06:55.923Z,9.60
2019-06-07T02:09:30.125Z,10.17
2019-06-07T02:11:59.874Z,10.03
2019-06-07T02:14:33.610Z,9.93
2019-06-07T02:17:04.187Z,9.83
2019-06-07T02:19:35.436Z,9.90
2019-06-07T02:22:06.688Z,9.90
2019-06-07T02:24:37.836Z,9.83
2019-06-07T02:27:08.995Z,9.33
2019-06-07T02:29:40.331Z,9.07
2019-06-07T02:32:11.519Z,9.60
2019-06-07T02:34:42.621Z,8.13
2019-06-07T02:37:13.858Z,9.20
2019-06-07T02:39:44.998Z,9.27
2019-06-07T02:42:16.205Z,8.80
2019-06-07T02:44:47.456Z,9.60
2019-06-07T02:47:18.514Z,8.73
2019-06-07T02:49:49.826Z,8.30
2019-06-07T02:52:21.049Z,7.70
2019-06-07T02:54:53.437Z,7.37
2019-06-07T02:57:25.798Z,7.33
2019-06-07T03:00:16.607Z,9.07
2019-06-07T03:02:33.502Z,8.20
2019-06-07T03:05:03.534Z,7.23
2019-06-07T03:07:40.413Z,8.80
2019-06-07T03:10:11.835Z,8.97
2019-06-07T03:12:46.213Z,7.10
2019-06-07T03:15:32.643Z,7.60
2019-06-07T03:18:06.459Z,8.80
2019-06-07T03:20:39.775Z,8.87
2019-06-07T03:23:10.747Z,7.60
2019-06-07T03:25:43.727Z,8.13
2019-06-07T03:28:14.955Z,8.90
2019-06-07T03:31:01.070Z,8.10
2019-06-07T03:33:18.997Z,8.43
2019-06-07T03:35:50.151Z,7.90
2019-06-07T03:38:21.363Z,9.40
2019-06-07T03:40:52.569Z,10.30
2019-06-07T03:43:25.155Z,9.73
2019-06-07T03:45:56.370Z,8.90
2019-06-07T03:48:30.162Z,11.40
2019-06-07T03:51:04.731Z,9.63
2019-06-07T03:53:36.532Z,9.87
2019-06-07T03:56:07.364Z,10.10
2019-06-07T03:58:49.053Z,10.03
2019-06-07T04:01:11.311Z,10.80
2019-06-07T04:03:50.937Z,10.47
2019-06-07T04:06:15.382Z,10.10
2019-06-07T04:08:46.562Z,11.07
2019-06-07T04:11:17.692Z,10.10
2019-06-07T04:13:48.863Z,8.30
2019-06-07T04:16:20.067Z,10.83
2019-06-07T04:18:51.159Z,10.23
2019-06-07T04:21:22.371Z,10.23
2019-06-07T04:23:53.481Z,11.27
2019-06-07T04:26:24.795Z,10.40
2019-06-07T04:31:32.163Z,9.97
2019-06-07T04:34:02.860Z,9.63
2019-06-07T04:36:49.046Z,9.07
2019-06-07T04:39:08.888Z,9.50
2019-06-07T04:41:42.083Z,9.13
2019-06-07T04:44:14.701Z,9.63
2019-06-07T04:46:49.051Z,9.67
2019-06-07T04:49:24.075Z,10.20
2019-06-07T04:51:57.297Z,9.33
2019-06-07T04:54:31.047Z,9.70
2019-06-07T04:57:01.528Z,9.53
2019-06-07T05:00:04.187Z,10.50
2019-06-07T05:02:05.548Z,9.63
2019-06-07T05:04:55.844Z,9.77
2019-06-07T05:07:27.133Z,9.50
2019-06-07T05:09:58.481Z,9.10
2019-06-07T05:12:30.067Z,9.73
2019-06-07T05:15:01.296Z,9.97
2019-06-07T05:17:34.364Z,10.73
2019-06-07T05:20:06.567Z,10.93
2019-06-07T05:22:42.058Z,10.50
2019-06-07T05:25:10.777Z,13.27
2019-06-07T05:27:46.631Z,13.10
2019-06-07T05:30:59.505Z,12.43
2019-06-07T05:33:01.761Z,13.10
2019-06-07T05:35:35.669Z,12.17
2019-06-07T05:38:07.881Z,11.40
2019-06-07T05:40:46.105Z,11.20
2019-06-07T05:43:28.351Z,12.40
2019-06-07T05:45:59.428Z,12.60
2019-06-07T05:48:31.713Z,12.97
2019-06-07T05:51:03.082Z,13.40
2019-06-07T05:53:34.730Z,12.40
2019-06-07T05:56:06.174Z,11.63
2019-06-07T05:58:37.753Z,12.10
2019-06-07T06:03:43.972Z,12.97
2019-06-07T06:06:15.462Z,12.20
2019-06-07T06:08:47.960Z,13.87
2019-06-07T06:11:19.669Z,14.73
2019-06-07T06:14:07.728Z,13.03
2019-06-07T06:16:23.571Z,12.93
2019-06-07T06:18:54.734Z,12.10
2019-06-07T06:21:25.966Z,10.43
2019-06-07T06:23:58.493Z,8.70
2019-06-07T06:26:29.671Z,9.30
2019-06-07T06:29:00.882Z,8.57
2019-06-07T06:31:32.034Z,8.80
2019-06-07T06:34:03.203Z,7.57
2019-06-07T06:36:34.435Z,7.30
2019-06-07T06:39:08.114Z,6.70
2019-06-07T06:41:51.988Z,8.50
2019-06-07T06:44:12.306Z,6.90
2019-06-07T06:46:49.097Z,6.90
2019-06-07T06:49:16.530Z,7.10
2019-06-07T06:51:51.339Z,7.50
2019-06-07T06:54:39.425Z,5.90
2019-06-07T06:56:53.558Z,7.13
2019-06-07T06:59:38.720Z,5.73
2019-06-07T07:01:57.900Z,7.63
2019-06-07T07:04:29.337Z,7.63
2019-06-07T07:07:00.641Z,7.10
2019-06-07T07:09:32.159Z,6.53
2019-06-07T07:12:12.193Z,6.87
2019-06-07T07:14:36.323Z,7.47
2019-06-07T07:17:07.420Z,6.37
2019-06-07T07:19:38.614Z,7.03
2019-06-07T07:22:09.684Z,6.20
2019-06-07T07:24:41.895Z,5.50
2019-06-07T07:27:13.116Z,5.67
2019-06-07T07:29:47.387Z,5.30
2019-06-07T07:32:17.264Z,5.53
2019-06-07T07:34:51.484Z,6.00
2019-06-07T07:37:21.267Z,6.63
2019-06-07T07:39:57.022Z,6.27
2019-06-07T07:42:25.290Z,5.90
2019-06-07T07:44:56.863Z,5.33
2019-06-07T07:47:28.314Z,5.67
2019-06-07T07:49:59.481Z,5.27
2019-06-07T07:52:30.640Z,6.10
2019-06-07T07:55:01.876Z,5.70
2019-06-07T07:57:34.280Z,5.73
2019-06-07T08:00:48.504Z,4.90
2019-06-07T08:02:39.245Z,5.53
2019-06-07T08:05:23.464Z,6.70
2019-06-07T08:07:43.471Z,5.47
2019-06-07T08:10:15.307Z,5.47
2019-06-07T08:13:06.888Z,4.60
2019-06-07T08:15:19.978Z,6.20
2019-06-07T08:17:57.107Z,5.40
2019-06-07T08:20:24.274Z,5.90
2019-06-07T08:22:59.271Z,6.00
2019-06-07T08:25:28.685Z,5.67
2019-06-07T08:27:59.832Z,6.00
2019-06-07T08:30:50.737Z,4.57
2019-06-07T08:33:24.807Z,5.50
2019-06-07T08:36:05.692Z,6.13
2019-06-07T08:38:30.678Z,5.40
2019-06-07T08:40:42.785Z,6.17
2019-06-07T08:43:20.878Z,4.77
2019-06-07T08:45:46.975Z,6.23
2019-06-07T08:48:27.626Z,6.13
2019-06-07T08:50:54.207Z,4.67
2019-06-07T08:53:24.168Z,5.10
2019-06-07T08:56:04.440Z,5.10
2019-06-07T08:58:28.134Z,4.73
2019-06-07T09:01:05.843Z,5.67
2019-06-07T09:03:32.091Z,5.20
2019-06-07T09:06:16.133Z,5.30
2019-06-07T09:08:37.075Z,5.80
2019-06-07T09:11:11.098Z,5.80
2019-06-07T09:13:41.143Z,6.00
2019-06-07T09:16:12.311Z,5.63
2019-06-07T09:18:44.961Z,4.70
2019-06-07T09:21:16.414Z,6.67
2019-06-07T09:23:47.677Z,5.70
2019-06-07T09:26:19.208Z,6.47
2019-06-07T09:28:50.558Z,5.37
2019-06-07T09:31:21.722Z,5.10
2019-06-07T09:33:52.902Z,5.53
2019-06-07T09:36:24.131Z,6.20
2019-06-07T09:38:58.696Z,5.80
2019-06-07T09:41:46.723Z,6.10
2019-06-07T09:44:19.098Z,5.30
2019-06-07T09:46:34.314Z,6.80
2019-06-07T09:49:18.298Z,7.10
2019-06-07T09:51:38.841Z,5.93
2019-06-07T09:54:11.499Z,6.50
2019-06-07T09:56:42.959Z,6.07
2019-06-07T09:59:14.047Z,6.10
2019-06-07T10:01:45.222Z,6.97
2019-06-07T10:04:30.786Z,7.40
2019-06-07T10:06:51.140Z,7.90
2019-06-07T10:11:55.636Z,6.90
2019-06-07T10:14:26.829Z,6.70
2019-06-07T10:16:58.806Z,7.00
2019-06-07T10:19:30.397Z,6.80
2019-06-07T10:22:01.571Z,5.90
2019-06-07T10:24:32.720Z,6.90
2019-06-07T10:27:04.132Z,5.97
2019-06-07T10:29:35.267Z,5.97
2019-06-07T10:32:06.954Z,7.50
2019-06-07T10:34:38.277Z,6.20
2019-06-07T10:37:11.964Z,5.80
2019-06-07T10:39:48.646Z,5.40
2019-06-07T10:42:15.559Z,6.47
2019-06-07T10:44:46.733Z,5.13
2019-06-07T10:47:18.060Z,7.10
2019-06-07T10:49:49.230Z,5.50
2019-06-07T10:52:20.475Z,5.40
2019-06-07T10:54:51.640Z,4.70
2019-06-07T10:57:22.871Z,5.20
2019-06-07T10:59:54.157Z,7.60
2019-06-07T11:02:25.400Z,6.67
2019-06-07T11:04:56.753Z,5.33
2019-06-07T11:07:28.047Z,6.83
2019-06-07T11:10:07.367Z,5.60
2019-06-07T11:12:32.210Z,5.70
2019-06-07T11:15:04.582Z,5.43
2019-06-07T11:17:37.030Z,5.43
2019-06-07T11:20:10.362Z,4.90
2019-06-07T11:22:41.669Z,5.30
2019-06-07T11:25:14.906Z,5.20
2019-06-07T11:28:06.319Z,6.70
2019-06-07T11:30:37.652Z,5.23
2019-06-07T11:33:08.706Z,4.90
2019-06-07T11:35:39.808Z,4.77
2019-06-07T11:38:11.038Z,5.10
2019-06-07T11:40:42.114Z,6.70
2019-06-07T11:43:13.405Z,5.73
2019-06-07T11:45:44.540Z,5.10
2019-06-07T11:48:15.907Z,5.43
2019-06-07T11:50:47.067Z,5.20
2019-06-07T11:53:20.034Z,5.30
2019-06-07T11:55:51.273Z,4.80
2019-06-07T11:58:22.455Z,5.47
2019-06-07T12:00:54.575Z,5.17
2019-06-07T12:03:25.911Z,5.93
2019-06-07T12:05:57.283Z,5.30
2019-06-07T12:08:28.553Z,5.33
2019-06-07T12:10:59.824Z,5.10
2019-06-07T12:13:31.005Z,5.20
2019-06-07T12:16:02.328Z,4.73
2019-06-07T12:18:33.449Z,5.13
2019-06-07T12:21:04.724Z,5.80
2019-06-07T12:23:35.991Z,5.47
2019-06-07T12:26:07.264Z,7.07
2019-06-07T12:28:38.448Z,5.03
2019-06-07T12:31:10.809Z,4.70
2019-06-07T12:33:42.141Z,5.40
2019-06-07T12:36:13.596Z,5.03
2019-06-07T12:38:44.873Z,5.50
2019-06-07T12:41:16.207Z,4.67
2019-06-07T12:43:47.403Z,4.50
2019-06-07T12:46:23.031Z,4.80
2019-06-07T12:48:51.412Z,4.67
2019-06-07T12:51:23.490Z,5.20
2019-06-07T12:53:55.929Z,5.00
2019-06-07T12:56:27.383Z,5.73
2019-06-07T12:58:58.740Z,5.33
2019-06-07T13:01:29.799Z,4.73
2019-06-07T13:04:00.923Z,4.90
2019-06-07T13:06:32.010Z,4.70
2019-06-07T13:09:03.453Z,5.27
2019-06-07T13:11:35.153Z,4.43
2019-06-07T13:14:07.021Z,4.87
2019-06-07T13:16:38.206Z,5.93
2019-06-07T13:19:09.466Z,5.03
2019-06-07T13:21:40.663Z,4.87
2019-06-07T13:24:12.154Z,5.10
2019-06-07T13:26:43.333Z,4.90
2019-06-07T13:29:14.511Z,4.50
2019-06-07T13:31:45.763Z,4.40
2019-06-07T13:34:18.547Z,4.50
2019-06-07T13:36:49.879Z,5.00
2019-06-07T13:39:24.262Z,4.97
2019-06-07T13:41:53.788Z,5.37
2019-06-07T13:44:26.158Z,5.97
2019-06-07T13:46:57.289Z,5.03
2019-06-07T13:49:28.478Z,5.07
2019-06-07T13:51:59.717Z,4.63
2019-06-07T13:54:30.842Z,4.73
2019-06-07T13:57:03.240Z,4.50
2019-06-07T13:59:34.596Z,4.97
2019-06-07T14:02:05.753Z,5.33
2019-06-07T14:04:36.948Z,5.60
2019-06-07T14:07:08.159Z,4.90
2019-06-07T14:09:39.317Z,5.00
2019-06-07T14:12:10.497Z,5.07
2019-06-07T14:14:41.789Z,5.60
2019-06-07T14:17:13.018Z,5.33
2019-06-07T14:19:44.263Z,4.40
2019-06-07T14:22:15.347Z,5.27
2019-06-07T14:24:46.444Z,4.70
2019-06-07T14:27:17.700Z,5.10
2019-06-07T14:29:48.797Z,5.50
2019-06-07T14:32:19.953Z,5.47
2019-06-07T14:34:51.055Z,5.13
2019-06-07T14:37:22.781Z,4.90
2019-06-07T14:39:54.106Z,5.20
2019-06-07T14:42:25.428Z,4.93
2019-06-07T14:44:56.542Z,5.37
2019-06-07T14:47:27.980Z,4.90
2019-06-07T14:49:59.389Z,5.50
2019-06-07T14:52:30.841Z,5.07
2019-06-07T14:55:02.187Z,5.03
2019-06-07T14:57:33.824Z,4.80
2019-06-07T15:00:11.510Z,4.60
2019-06-07T15:02:40.180Z,5.63
2019-06-07T15:05:13.136Z,4.73
2019-06-07T15:07:44.296Z,5.00
2019-06-07T15:10:15.901Z,4.60
2019-06-07T15:12:47.188Z,5.30
2019-06-07T15:15:18.400Z,4.73
2019-06-07T15:17:49.595Z,4.80
2019-06-07T15:20:20.971Z,5.00
2019-06-07T15:22:52.093Z,4.73
2019-06-07T15:25:23.247Z,4.80
2019-06-07T15:27:54.533Z,4.67
2019-06-07T15:30:27.336Z,4.83
2019-06-07T15:32:59.778Z,4.50
2019-06-07T15:35:32.146Z,5.00
2019-06-07T15:38:03.768Z,4.80
2019-06-07T15:40:35.321Z,5.40
2019-06-07T15:43:06.613Z,4.30
2019-06-07T15:45:37.892Z,4.80
2019-06-07T15:48:09.171Z,5.13
2019-06-07T15:50:40.554Z,4.90
2019-06-07T15:53:11.773Z,4.97
2019-06-07T15:55:45.607Z,4.77
2019-06-07T15:58:15.723Z,4.83
2019-06-07T16:00:49.973Z,5.10
2019-06-07T16:03:19.863Z,4.80
2019-06-07T16:05:50.944Z,5.63
2019-06-07T16:08:22.358Z,6.70
2019-06-07T16:10:53.503Z,6.07
2019-06-07T16:13:24.684Z,5.40
2019-06-07T16:15:55.867Z,6.33
2019-06-07T16:18:27.162Z,6.27
2019-06-07T16:20:58.238Z,5.50
2019-06-07T16:23:29.414Z,7.17
2019-06-07T16:26:00.744Z,5.83
2019-06-07T16:28:31.978Z,5.73
2019-06-07T16:31:03.131Z,6.23
2019-06-07T16:33:34.704Z,5.70
2019-06-07T16:36:06.348Z,5.73
2019-06-07T16:38:38.044Z,6.50
2019-06-07T16:41:09.269Z,6.10
2019-06-07T16:43:40.586Z,9.87
2019-06-07T16:46:11.910Z,9.10
2019-06-07T16:48:43.063Z,13.27
2019-06-07T16:51:14.195Z,6.00
2019-06-07T16:53:45.290Z,6.57
2019-06-07T16:56:16.533Z,7.40
2019-06-07T16:58:48.717Z,23.50
2019-06-07T17:01:20.041Z,10.67
2019-06-07T17:03:51.370Z,6.27
2019-06-07T17:06:22.604Z,5.87
2019-06-07T17:08:53.802Z,7.00
2019-06-07T17:11:25.079Z,6.13
2019-06-07T17:13:56.242Z,5.90
2019-06-07T17:16:27.569Z,5.20
2019-06-07T17:18:58.863Z,5.73
2019-06-07T17:21:30.088Z,4.90
2019-06-07T17:24:01.381Z,6.40
2019-06-07T17:26:32.680Z,5.90
2019-06-07T17:29:03.987Z,5.63
2019-06-07T17:31:35.137Z,5.60
2019-06-07T17:34:07.408Z,5.20
2019-06-07T17:36:38.652Z,5.83
2019-06-07T17:39:10.030Z,6.30
2019-06-07T17:41:51.523Z,5.50
2019-06-07T17:44:15.506Z,5.83
2019-06-07T17:46:47.789Z,5.80
2019-06-07T17:49:18.854Z,6.37
2019-06-07T17:51:50.165Z,5.90
2019-06-07T17:54:21.555Z,5.43
2019-06-07T17:56:53.145Z,5.50
2019-06-07T17:59:25.409Z,6.20
2019-06-07T18:02:13.602Z,5.53
2019-06-07T18:04:29.500Z,6.30
2019-06-07T18:07:01.418Z,5.80
2019-06-07T18:09:33.279Z,6.60
2019-06-07T18:12:04.515Z,6.10
2019-06-07T18:14:35.780Z,6.20
2019-06-07T18:17:06.956Z,6.90
2019-06-07T18:19:38.187Z,6.87
2019-06-07T18:22:09.324Z,6.60
2019-06-07T18:24:40.550Z,6.70
2019-06-07T18:27:11.735Z,5.93
2019-06-07T18:29:42.860Z,6.70
2019-06-07T18:32:13.940Z,6.67
2019-06-07T18:34:45.083Z,6.33
2019-06-07T18:37:16.317Z,6.40
2019-06-07T18:39:47.469Z,6.70
2019-06-07T18:42:18.852Z,6.73
2019-06-07T18:44:50.989Z,6.80
2019-06-07T18:47:22.092Z,6.93
2019-06-07T18:49:53.568Z,7.27
2019-06-07T18:52:30.872Z,6.70
2019-06-07T18:55:03.255Z,7.07
2019-06-07T18:57:34.453Z,7.00
2019-06-07T19:00:08.002Z,6.93
2019-06-07T19:02:39.234Z,7.40
2019-06-07T19:05:11.427Z,7.73
2019-06-07T19:07:42.665Z,7.83
2019-06-07T19:10:14.791Z,8.03
2019-06-07T19:12:46.354Z,7.37
2019-06-07T19:15:21.092Z,7.33
2019-06-07T19:17:53.895Z,7.70
2019-06-07T19:20:25.548Z,8.07
2019-06-07T19:22:56.711Z,8.13
2019-06-07T19:25:27.936Z,7.73
2019-06-07T19:27:59.355Z,8.00
2019-06-07T19:30:30.635Z,8.60
2019-06-07T19:33:01.872Z,8.07
2019-06-07T19:35:33.367Z,8.50
2019-06-07T19:38:04.919Z,8.10
2019-06-07T19:40:36.055Z,8.33
2019-06-07T19:43:07.294Z,7.70
2019-06-07T19:45:38.532Z,8.00
2019-06-07T19:48:10.050Z,7.50
2019-06-07T19:50:41.386Z,8.00
2019-06-07T19:53:13.890Z,7.43
2019-06-07T19:55:45.143Z,28.73
2019-06-07T19:58:16.262Z,21.43
2019-06-07T20:00:47.770Z,9.20
2019-06-07T20:03:19.098Z,8.53
2019-06-07T20:05:50.616Z,7.67
2019-06-07T20:08:21.730Z,7.73
2019-06-07T20:10:52.908Z,7.63
2019-06-07T20:13:24.289Z,8.60
2019-06-07T20:15:56.769Z,8.50
2019-06-07T20:18:29.299Z,7.83
2019-06-07T20:21:00.748Z,8.03
2019-06-07T20:23:32.089Z,8.07
2019-06-07T20:26:03.183Z,8.23
2019-06-07T20:28:34.445Z,8.57
2019-06-07T20:31:06.117Z,8.10
2019-06-07T20:33:37.480Z,7.87
2019-06-07T20:36:09.096Z,6.87
2019-06-07T20:38:40.470Z,6.70
2019-06-07T20:41:11.648Z,6.40
2019-06-07T20:43:42.924Z,5.87
2019-06-07T20:46:14.086Z,5.73
2019-06-07T20:48:45.183Z,6.17
2019-06-07T20:51:16.306Z,6.17
2019-06-07T20:53:47.463Z,6.40
2019-06-07T20:56:18.622Z,6.23
2019-06-07T20:58:49.927Z,6.07
2019-06-07T21:01:21.168Z,5.30
2019-06-07T21:03:52.387Z,7.43
2019-06-07T21:06:23.518Z,6.67
2019-06-07T21:08:54.725Z,5.80
2019-06-07T21:11:25.956Z,4.70
2019-06-07T21:13:57.245Z,6.63
2019-06-07T21:16:28.473Z,5.80
2019-06-07T21:19:00.095Z,5.20
2019-06-07T21:21:31.494Z,5.00
2019-06-07T21:24:02.623Z,5.47
2019-06-07T21:26:33.825Z,4.40
2019-06-07T21:29:05.259Z,3.80
2019-06-07T21:31:36.556Z,3.50
2019-06-07T21:34:11.034Z,2.80
2019-06-07T21:36:40.705Z,3.00
2019-06-07T21:39:12.398Z,3.30
2019-06-07T21:41:43.799Z,2.50
2019-06-07T21:44:15.069Z,2.73
2019-06-07T21:46:46.267Z,2.20
2019-06-07T21:49:17.373Z,2.50
2019-06-07T21:51:48.468Z,2.30
2019-06-07T21:54:19.702Z,1.80
2019-06-07T21:56:50.859Z,2.03
2019-06-07T21:59:22.062Z,1.80
2019-06-07T22:01:53.329Z,1.60
2019-06-07T22:04:24.554Z,2.20
2019-06-07T22:06:55.628Z,1.83
2019-06-07T22:09:26.805Z,2.30
2019-06-07T22:11:58.104Z,1.80
2019-06-07T22:14:29.294Z,2.20
2019-06-07T22:17:00.492Z,2.03
2019-06-07T22:19:31.720Z,2.03
2019-06-07T22:22:03.757Z,1.43
2019-06-07T22:24:35.898Z,2.17
2019-06-07T22:27:07.210Z,1.50
2019-06-07T22:29:38.477Z,1.40
2019-06-07T22:32:10.913Z,1.37
2019-06-07T22:34:42.213Z,1.50
2019-06-07T22:37:15.874Z,1.17
2019-06-07T22:39:46.085Z,1.70
2019-06-07T22:42:17.316Z,1.60
2019-06-07T22:44:48.497Z,1.27
2019-06-07T22:47:19.634Z,1.50
2019-06-07T22:49:50.746Z,0.97
2019-06-07T22:52:22.780Z,1.43
2019-06-07T22:54:54.185Z,1.03
2019-06-07T22:57:28.051Z,1.00
2019-06-07T22:59:59.247Z,1.30
2019-06-07T23:02:30.385Z,1.20
2019-06-07T23:05:04.710Z,1.40
2019-06-07T23:07:34.691Z,1.10
2019-06-07T23:10:06.291Z,1.03
2019-06-07T23:12:37.467Z,1.60
2019-06-07T23:15:09.382Z,1.20
2019-06-07T23:17:40.666Z,0.97
2019-06-07T23:20:13.709Z,1.27
2019-06-07T23:22:46.089Z,1.43
2019-06-07T23:25:20.880Z,1.07
2019-06-07T23:27:50.227Z,1.10
2019-06-07T23:30:21.886Z,1.03
2019-06-07T23:32:53.071Z,1.00
2019-06-07T23:35:24.347Z,1.10
2019-06-07T23:37:55.620Z,1.23
2019-06-07T23:40:26.802Z,0.90
2019-06-07T23:42:57.951Z,1.33
2019-06-07T23:45:29.042Z,1.00
2019-06-07T23:48:00.570Z,1.20
2019-06-07T23:50:31.786Z,1.10
2019-06-07T23:53:03.040Z,1.27
2019-06-07T23:55:34.314Z,1.53
2019-06-07T23:58:05.459Z,0.90
